Time;durP1;ratioP1;P1;durP2;ratioP2;P2;SDS_P1;SDS_P2;PMS_P1;PMS_P2;Temp;Humidity;BMP_temperature;BMP_pressure;BME280_temperature;BME280_humidity;BME280_pressure;Samples;Min_cycle;Max_cycle;Signal;HPM_P1;HPM_P2
2021/04/15 00:01:52;;;;;;;8.73;3.40;;;5.40;75.60;;;;;;4939374;29;20047;-93
2021/04/15 00:04:18;;;;;;;11.02;3.60;;;5.40;75.70;;;;;;4940109;29;20031;-92
2021/04/15 00:06:45;;;;;;;9.73;3.60;;;5.30;75.70;;;;;;4924964;29;20028;-92
2021/04/15 00:09:19;;;;;;;10.07;3.80;;;5.30;75.90;;;;;;4942275;29;20103;-92
2021/04/15 00:11:46;;;;;;;9.70;3.40;;;5.20;76.00;;;;;;4941610;29;20028;-93
2021/04/15 00:14:15;;;;;;;11.00;3.63;;;5.20;75.90;;;;;;4939778;29;20024;-92
2021/04/15 00:16:41;;;;;;;;;;;5.20;75.90;;;;;;4925092;29;20028;-92
2021/04/15 00:19:08;;;;;;;12.00;3.77;;;5.20;75.90;;;;;;4940149;29;19910;-93
2021/04/15 00:21:34;;;;;;;10.13;3.47;;;5.10;76.00;;;;;;4924437;29;20024;-92
2021/04/15 00:24:00;;;;;;;11.87;3.70;;;5.10;76.20;;;;;;4924333;29;20371;-93
2021/04/15 00:26:28;;;;;;;9.63;3.67;;;5.00;76.20;;;;;;4924799;29;20028;-93
2021/04/15 00:28:55;;;;;;;9.23;3.63;;;5.00;76.40;;;;;;4924282;29;20028;-93
2021/04/15 00:31:21;;;;;;;10.00;3.43;;;5.00;76.40;;;;;;4940134;29;20024;-92
2021/04/15 00:33:48;;;;;;;11.37;3.63;;;5.00;76.50;;;;;;4924034;29;20046;-92
2021/04/15 00:36:13;;;;;;;8.77;3.93;;;5.00;76.50;;;;;;4923608;29;20028;-92
2021/04/15 00:38:39;;;;;;;9.67;3.57;;;5.00;76.50;;;;;;4922621;29;20048;-92
2021/04/15 00:41:10;;;;;;;8.93;3.67;;;5.00;76.50;;;;;;4924185;29;20023;-93
2021/04/15 00:43:38;;;;;;;11.27;3.87;;;5.00;76.60;;;;;;4939618;29;20056;-92
2021/04/15 00:46:31;;;;;;;9.30;3.60;;;4.90;76.60;;;;;;4923172;29;20024;-92
2021/04/15 00:48:57;;;;;;;10.07;3.33;;;4.90;76.60;;;;;;4923693;29;20493;-93
2021/04/15 00:51:48;;;;;;;10.47;4.40;;;4.90;76.50;;;;;;4923444;29;20024;-92
2021/04/15 00:54:22;;;;;;;11.53;3.93;;;4.90;76.70;;;;;;4939385;29;20107;-92
2021/04/15 00:56:48;;;;;;;11.10;4.00;;;4.90;76.80;;;;;;4923408;29;20028;-92
2021/04/15 00:59:14;;;;;;;12.00;4.00;;;4.80;76.70;;;;;;4923471;29;20028;-93
2021/04/15 01:01:39;;;;;;;11.57;3.83;;;4.90;76.70;;;;;;4923661;29;20023;-93
2021/04/15 01:04:05;;;;;;;11.67;3.87;;;4.80;76.80;;;;;;4922998;29;20055;-93
2021/04/15 01:06:31;;;;;;;10.20;4.00;;;4.80;76.80;;;;;;4922653;29;20079;-92
2021/04/15 01:08:59;;;;;;;14.30;3.67;;;4.80;76.80;;;;;;4923819;29;20031;-92
2021/04/15 01:11:49;;;;;;;12.10;3.90;;;4.80;76.80;;;;;;4940524;29;20028;-93
2021/04/15 01:14:48;;;;;;;12.23;4.00;;;4.80;76.90;;;;;;4924579;29;20083;-92
2021/04/15 01:17:28;;;;;;;11.02;3.85;;;4.80;76.80;;;;;;4923196;29;20030;-92
2021/04/15 01:20:06;;;;;;;12.43;4.00;;;4.70;76.80;;;;;;4938703;29;20575;-92
2021/04/15 01:23:05;;;;;;;11.37;4.27;;;4.70;76.90;;;;;;4939121;29;20511;-93
2021/04/15 01:26:08;;;;;;;16.30;4.70;;;4.60;77.00;;;;;;4923440;29;20063;-93
2021/04/15 01:28:39;;;;;;;10.87;3.87;;;4.60;77.10;;;;;;4938977;29;20027;-92
2021/04/15 01:31:20;;;;;;;11.73;4.23;;;4.50;77.30;;;;;;4937802;29;20059;-92
2021/04/15 01:34:32;;;;;;;10.40;4.50;;;4.60;77.20;;;;;;4921301;29;20063;-92
2021/04/15 01:37:00;;;;;;;10.93;4.10;;;4.50;77.30;;;;;;4918344;29;20040;-91
2021/04/15 01:39:37;;;;;;;12.60;4.60;;;4.50;77.30;;;;;;4922963;29;20047;-93
2021/04/15 01:42:12;;;;;;;10.50;4.23;;;4.50;77.30;;;;;;4938248;29;20063;-92
2021/04/15 01:44:49;;;;;;;10.90;4.23;;;4.50;77.20;;;;;;4937723;29;20042;-92
2021/04/15 01:47:21;;;;;;;13.00;4.70;;;4.50;77.40;;;;;;4922258;29;20023;-92
2021/04/15 01:49:53;;;;;;;14.27;5.30;;;4.40;77.40;;;;;;4922046;29;20463;-92
2021/04/15 01:52:19;;;;;;;12.03;4.77;;;4.40;77.70;;;;;;4937047;29;20028;-92
2021/04/15 01:54:55;;;;;;;13.43;4.77;;;4.40;77.60;;;;;;4935136;29;20020;-92
2021/04/15 01:57:45;;;;;;;12.87;4.73;;;4.40;77.50;;;;;;4919157;29;20074;-92
2021/04/15 02:00:24;;;;;;;11.53;4.60;;;4.40;77.40;;;;;;4936028;29;20020;-92
2021/04/15 02:02:55;;;;;;;11.15;4.53;;;4.50;77.40;;;;;;4947470;29;20040;-92
2021/04/15 02:05:28;;;;;;;13.23;4.60;;;4.40;77.30;;;;;;4959510;28;20035;-92
2021/04/15 02:08:06;;;;;;;11.50;4.60;;;4.40;77.40;;;;;;4944043;29;20024;-91
2021/04/15 02:10:34;;;;;;;11.30;4.37;;;4.30;77.50;;;;;;4958490;29;20020;-93
2021/04/15 02:13:04;;;;;;;13.03;5.27;;;4.30;77.70;;;;;;4920813;29;20082;-92
2021/04/15 02:15:33;;;;;;;11.20;4.70;;;4.30;77.70;;;;;;4934955;29;20055;-92
2021/04/15 02:18:06;;;;;;;13.45;4.82;;;4.20;77.80;;;;;;4935417;29;20075;-93
2021/04/15 02:20:32;;;;;;;10.37;4.60;;;4.20;78.00;;;;;;4935091;29;20064;-93
2021/04/15 02:23:06;;;;;;;12.77;4.90;;;4.20;78.00;;;;;;4935477;29;20173;-94
2021/04/15 02:25:47;;;;;;;12.40;5.17;;;4.20;78.00;;;;;;4919392;29;20031;-93
2021/04/15 02:28:20;;;;;;;11.73;4.60;;;4.10;78.10;;;;;;4934903;29;20046;-92
2021/04/15 02:31:01;;;;;;;12.73;4.57;;;4.10;78.20;;;;;;4919096;29;20055;-92
2021/04/15 02:33:50;;;;;;;11.00;4.60;;;4.00;78.30;;;;;;4934342;29;20043;-92
2021/04/15 02:36:17;;;;;;;13.03;4.70;;;4.10;78.20;;;;;;4919229;29;20039;-93
2021/04/15 02:38:51;;;;;;;12.50;4.43;;;4.10;78.20;;;;;;4935246;29;20470;-91
2021/04/15 02:41:21;;;;;;;14.73;4.73;;;4.00;78.20;;;;;;4920873;29;20031;-93
2021/04/15 02:44:06;;;;;;;14.87;5.10;;;4.00;78.40;;;;;;4938395;28;20049;-91
2021/04/15 02:46:39;;;;;;;14.27;4.93;;;4.00;78.30;;;;;;4938674;29;20027;-92
2021/04/15 02:49:08;;;;;;;11.67;4.30;;;4.00;78.30;;;;;;4938531;29;20031;-92
2021/04/15 02:51:44;;;;;;;10.73;4.35;;;4.00;78.30;;;;;;4939380;29;20557;-92
2021/04/15 02:54:46;;;;;;;12.30;4.67;;;4.00;78.30;;;;;;4940857;29;20039;-92
2021/04/15 02:57:17;;;;;;;11.70;4.80;;;4.00;78.10;;;;;;4948463;29;20031;-92
2021/04/15 03:00:03;;;;;;;12.23;4.70;;;4.00;78.20;;;;;;4941344;29;20060;-92
2021/04/15 03:02:42;;;;;;;12.60;4.90;;;4.00;78.10;;;;;;4940785;29;20031;-92
2021/04/15 03:05:28;;;;;;;;;;;4.00;78.10;;;;;;4944278;29;20027;-93
2021/04/15 03:07:58;;;;;;;11.37;4.60;;;3.90;78.00;;;;;;4942395;29;19913;-92
2021/04/15 03:10:31;;;;;;;12.47;5.10;;;3.90;78.10;;;;;;4943772;29;20078;-93
2021/04/15 03:13:08;;;;;;;12.63;5.07;;;3.80;78.20;;;;;;4948549;29;20027;-93
2021/04/15 03:15:40;;;;;;;12.97;5.40;;;3.80;78.40;;;;;;4946359;29;20023;-92
2021/04/15 03:18:12;;;;;;;12.40;5.30;;;3.70;78.40;;;;;;4942790;29;20023;-92
2021/04/15 03:20:47;;;;;;;12.13;5.20;;;3.70;78.50;;;;;;4941503;29;20031;-92
2021/04/15 03:23:25;;;;;;;13.47;5.00;;;3.70;78.50;;;;;;4941681;29;20057;-93
2021/04/15 03:25:55;;;;;;;14.27;5.43;;;3.70;78.60;;;;;;4941326;29;20478;-92
2021/04/15 03:28:31;;;;;;;13.57;5.60;;;3.70;78.60;;;;;;4941296;29;20030;-92
2021/04/15 03:31:01;;;;;;;14.17;5.47;;;3.60;78.60;;;;;;4941237;29;20058;-92
2021/04/15 03:33:41;;;;;;;12.53;4.93;;;3.60;78.80;;;;;;4941715;29;20038;-92
2021/04/15 03:36:27;;;;;;;11.90;5.20;;;3.60;78.90;;;;;;4941335;29;20086;-93
2021/04/15 03:38:59;;;;;;;11.60;4.60;;;3.70;78.70;;;;;;4941354;29;20501;-92
2021/04/15 03:41:36;;;;;;;11.90;4.83;;;3.70;78.60;;;;;;4941901;29;20110;-92
2021/04/15 03:44:09;;;;;;;13.03;5.50;;;3.70;78.50;;;;;;4941581;28;20390;-93
2021/04/15 03:46:44;;;;;;;13.97;5.33;;;3.70;78.60;;;;;;4940955;29;20059;-92
2021/04/15 03:49:40;;;;;;;13.57;5.33;;;3.60;78.70;;;;;;4940721;29;20061;-92
2021/04/15 03:52:22;;;;;;;11.97;5.10;;;3.60;78.70;;;;;;4940783;29;20031;-92
2021/04/15 03:54:58;;;;;;;13.30;4.90;;;3.60;78.70;;;;;;4941059;29;20174;-92
2021/04/15 03:57:24;;;;;;;12.87;4.80;;;3.60;78.60;;;;;;4940821;29;20034;-91
2021/04/15 03:59:55;;;;;;;15.23;5.80;;;3.60;78.70;;;;;;4940937;29;20370;-92
2021/04/15 04:02:30;;;;;;;14.40;5.00;;;3.60;78.80;;;;;;4941282;29;20031;-92
2021/04/15 04:05:26;;;;;;;14.60;5.30;;;3.60;78.90;;;;;;4940879;29;20032;-93
2021/04/15 04:07:59;;;;;;;13.43;5.13;;;3.50;79.50;;;;;;4940943;29;20034;-90
2021/04/15 04:10:38;;;;;;;13.30;5.20;;;3.50;78.90;;;;;;4940570;29;20118;-89
2021/04/15 04:13:34;;;;;;;13.63;4.90;;;3.40;79.00;;;;;;4940800;28;20058;-92
2021/04/15 04:16:09;;;;;;;13.57;4.60;;;3.50;79.80;;;;;;4940644;29;20031;-92
2021/04/15 04:18:53;;;;;;;14.77;5.43;;;3.50;79.00;;;;;;4940866;29;20038;-92
2021/04/15 04:21:25;;;;;;;13.60;5.07;;;3.50;79.00;;;;;;4939971;29;20046;-92
2021/04/15 04:23:59;;;;;;;14.90;5.33;;;3.40;78.90;;;;;;4941241;28;20410;-92
2021/04/15 04:26:34;;;;;;;12.27;5.27;;;3.50;79.20;;;;;;4940812;29;20031;-92
2021/04/15 04:29:06;;;;;;;12.53;5.00;;;3.40;79.00;;;;;;4941003;29;20485;-92
2021/04/15 04:31:37;;;;;;;14.13;5.57;;;3.40;79.10;;;;;;4941410;29;20035;-92
2021/04/15 04:34:05;;;;;;;12.37;5.50;;;3.40;79.20;;;;;;4942291;28;20027;-92
2021/04/15 04:36:32;;;;;;;13.07;5.60;;;3.40;79.20;;;;;;4941681;29;20035;-92
2021/04/15 04:38:59;;;;;;;14.70;5.97;;;3.40;79.20;;;;;;4941576;29;20054;-93
2021/04/15 04:41:50;;;;;;;13.57;5.20;;;3.40;79.20;;;;;;4944560;29;20055;-92
2021/04/15 04:44:38;;;;;;;15.23;5.60;;;3.40;79.10;;;;;;4954892;29;20039;-93
2021/04/15 04:47:22;;;;;;;15.63;5.73;;;3.40;79.00;;;;;;4963841;29;20043;-91
2021/04/15 04:49:59;;;;;;;14.40;5.03;;;3.40;79.20;;;;;;4964773;29;20026;-91
2021/04/15 04:52:28;;;;;;;15.43;5.97;;;3.30;79.20;;;;;;4956697;29;20417;-92
2021/04/15 04:54:54;;;;;;;14.75;6.00;;;3.40;79.30;;;;;;4942574;29;20027;-92
2021/04/15 04:57:28;;;;;;;15.60;5.53;;;3.30;79.30;;;;;;4945331;29;20039;-93
2021/04/15 05:00:02;;;;;;;15.63;5.70;;;3.30;79.40;;;;;;4946885;29;20037;-88
2021/04/15 05:02:28;;;;;;;14.07;5.80;;;3.30;79.30;;;;;;4944626;29;20031;-88
2021/04/15 05:05:07;;;;;;;14.80;5.30;;;3.30;79.20;;;;;;4945773;29;20524;-85
2021/04/15 05:07:36;;;;;;;16.35;5.57;;;3.30;79.20;;;;;;4945868;29;20027;-84
2021/04/15 05:10:04;;;;;;;15.30;5.93;;;3.30;79.40;;;;;;4962530;29;20046;-85
2021/04/15 05:12:33;;;;;;;13.27;5.80;;;3.30;79.20;;;;;;4961944;29;20106;-85
2021/04/15 05:14:59;;;;;;;15.57;5.47;;;3.40;79.20;;;;;;4962617;28;20441;-85
2021/04/15 05:17:30;;;;;;;13.40;5.50;;;3.50;79.10;;;;;;4947517;29;20062;-86
2021/04/15 05:19:59;;;;;;;15.43;6.03;;;3.50;79.00;;;;;;4948556;29;20023;-85
2021/04/15 05:22:54;;;;;;;14.45;5.57;;;3.50;79.00;;;;;;4945371;29;20393;-85
2021/04/15 05:25:29;;;;;;;13.80;6.07;;;3.50;79.00;;;;;;4941829;29;20098;-87
2021/04/15 05:27:56;;;;;;;13.00;5.57;;;3.50;78.90;;;;;;4943815;29;20024;-85
2021/04/15 05:30:40;;;;;;;16.30;6.67;;;3.50;78.90;;;;;;4944574;29;20461;-86
2021/04/15 05:33:08;;;;;;;15.50;6.20;;;3.60;78.90;;;;;;4945254;29;20039;-85
2021/04/15 05:35:39;;;;;;;15.10;5.93;;;3.60;78.90;;;;;;4944265;29;20393;-87
2021/04/15 05:38:07;;;;;;;14.73;6.07;;;3.60;78.90;;;;;;4943096;29;20130;-85
2021/04/15 05:40:35;;;;;;;19.33;6.60;;;3.60;78.90;;;;;;4962128;29;20028;-86
2021/04/15 05:43:13;;;;;;;16.50;6.73;;;3.60;78.90;;;;;;4961530;29;20045;-87
2021/04/15 05:45:42;;;;;;;15.25;5.85;;;3.60;78.90;;;;;;4943824;29;20052;-83
2021/04/15 05:48:14;;;;;;;17.02;6.05;;;3.60;78.90;;;;;;4943245;29;20039;-83
2021/04/15 05:50:52;;;;;;;20.27;6.40;;;3.60;78.90;;;;;;4943449;29;20361;-81
2021/04/15 05:53:30;;;;;;;17.47;6.47;;;3.60;79.00;;;;;;4943028;29;20382;-81
2021/04/15 05:56:12;;;;;;;17.83;6.43;;;3.60;79.80;;;;;;4960096;28;20056;-81
2021/04/15 05:58:51;;;;;;;15.33;5.80;;;3.60;79.00;;;;;;4942905;29;20059;-82
2021/04/15 06:01:36;;;;;;;16.42;6.63;;;3.70;79.10;;;;;;4943960;29;20042;-82
2021/04/15 06:04:20;;;;;;;19.53;7.30;;;3.70;79.20;;;;;;4942224;28;20047;-82
2021/04/15 06:06:46;;;;;;;17.67;7.03;;;3.70;79.30;;;;;;4942168;29;20024;-81
2021/04/15 06:09:13;;;;;;;20.17;6.60;;;3.70;79.40;;;;;;4937816;29;20027;-89
2021/04/15 06:11:44;;;;;;;17.50;6.17;;;3.70;79.30;;;;;;4944343;29;20038;-85
2021/04/15 06:14:25;;;;;;;16.53;6.37;;;3.80;79.40;;;;;;4944379;29;20148;-84
2021/04/15 06:17:25;;;;;;;15.07;5.50;;;3.80;79.40;;;;;;4960298;29;20035;-83
2021/04/15 06:20:06;;;;;;;15.90;5.67;;;3.80;79.70;;;;;;4936770;29;20086;-84
2021/04/15 06:22:36;;;;;;;18.03;5.53;;;3.90;79.60;;;;;;4940385;29;20031;-91
2021/04/15 06:25:28;;;;;;;15.03;6.50;;;3.90;79.70;;;;;;4921996;29;20024;-91
2021/04/15 06:28:00;;;;;;;14.63;5.33;;;4.00;79.40;;;;;;4926866;29;20395;-87
2021/04/15 06:30:33;;;;;;;12.50;4.70;;;4.10;79.60;;;;;;4925569;29;20030;-86
2021/04/15 06:33:02;;;;;;;16.17;5.27;;;4.10;80.00;;;;;;4925440;29;20031;-86
2021/04/15 06:35:31;;;;;;;13.05;5.13;;;4.10;79.50;;;;;;4924215;29;20030;-83
2021/04/15 06:38:24;;;;;;;15.53;5.37;;;4.20;79.60;;;;;;4928403;29;20545;-87
2021/04/15 06:41:26;;;;;;;13.23;4.57;;;4.30;79.50;;;;;;4947736;29;20032;-88
2021/04/15 06:44:49;;;;;;;18.23;5.17;;;4.40;79.70;;;;;;4951535;28;20035;-88
2021/04/15 06:47:26;;;;;;;16.07;5.60;;;4.40;79.80;;;;;;4871557;29;20089;-88
2021/04/15 06:50:15;;;;;;;16.80;5.13;;;4.40;79.70;;;;;;4870331;29;20029;-86
2021/04/15 06:52:56;;;;;;;13.02;4.55;;;4.50;79.70;;;;;;4950216;29;20039;-88
2021/04/15 06:55:43;;;;;;;13.20;4.67;;;4.50;79.80;;;;;;4946343;29;20039;-89
2021/04/15 06:58:24;;;;;;;14.67;5.10;;;4.70;82.20;;;;;;4964418;29;20027;-88
2021/04/15 07:01:29;;;;;;;13.93;5.00;;;4.80;79.60;;;;;;4949044;29;20028;-90
2021/04/15 07:04:15;;;;;;;15.37;4.97;;;5.00;79.40;;;;;;4917361;29;20063;-88
2021/04/15 07:07:22;;;;;;;13.70;5.37;;;5.10;78.90;;;;;;4948742;29;20031;-83
2021/04/15 07:10:10;;;;;;;16.60;5.27;;;5.20;79.40;;;;;;4887868;29;20124;-93
2021/04/15 07:13:17;;;;;;;16.80;5.47;;;5.30;78.40;;;;;;4866242;29;20026;-91
2021/04/15 07:16:33;;;;;;;19.27;5.60;;;5.30;80.40;;;;;;4944205;29;20043;-85
2021/04/15 07:19:29;;;;;;;16.47;5.80;;;5.40;78.30;;;;;;4943958;29;20040;-83
2021/04/15 07:22:32;;;;;;;16.83;5.80;;;5.50;78.10;;;;;;4933179;29;20034;-91
2021/04/15 07:25:33;;;;;;;14.40;4.67;;;5.70;78.10;;;;;;4934665;29;20046;-91
2021/04/15 07:28:32;;;;;;;13.17;4.37;;;5.80;79.50;;;;;;4937684;29;20028;-92
2021/04/15 07:38:23;;;;;;;13.75;4.68;;;6.10;77.40;;;;;;4998000;23;21016;-92
2021/04/15 07:41:16;;;;;;;12.27;4.23;;;6.20;77.80;;;;;;4975780;28;20050;-85
2021/04/15 07:44:24;;;;;;;13.17;4.50;;;6.20;77.40;;;;;;4965116;28;20019;-85
2021/04/15 07:47:03;;;;;;;16.73;5.77;;;6.40;76.80;;;;;;4950967;29;20031;-85
2021/04/15 07:50:05;;;;;;;14.87;4.13;;;6.40;78.00;;;;;;4944657;29;20055;-83
2021/04/15 07:56:37;;;;;;;15.27;4.13;;;6.60;76.60;;;;;;4969675;29;20304;-91
2021/04/15 07:59:40;;;;;;;13.13;3.93;;;6.70;78.00;;;;;;4960331;29;20035;-89
2021/04/15 08:02:40;;;;;;;14.30;4.53;;;6.80;77.20;;;;;;4944626;29;20079;-91
2021/04/15 08:05:23;;;;;;;15.77;4.57;;;6.90;77.10;;;;;;4949834;29;20043;-92
2021/04/15 08:08:13;;;;;;;16.53;4.27;;;7.00;76.50;;;;;;4949586;29;20107;-93
2021/04/15 08:11:17;;;;;;;14.97;4.57;;;7.00;75.90;;;;;;4949893;29;20031;-92
2021/04/15 08:13:47;;;;;;;16.53;4.60;;;7.10;76.90;;;;;;4958568;28;20031;-93
2021/04/15 08:16:40;;;;;;;14.20;4.17;;;7.10;75.80;;;;;;4946916;28;20409;-93
2021/04/15 08:19:39;;;;;;;16.23;4.90;;;7.30;75.20;;;;;;4944517;29;20031;-84
2021/04/15 08:22:23;;;;;;;14.00;4.40;;;7.30;75.30;;;;;;4942877;29;20015;-83
2021/04/15 08:25:13;;;;;;;14.70;4.57;;;7.20;75.10;;;;;;4959657;29;20061;-82
2021/04/15 08:27:44;;;;;;;17.77;5.27;;;7.20;75.10;;;;;;4943709;29;20087;-84
2021/04/15 08:30:28;;;;;;;14.30;4.67;;;7.10;75.10;;;;;;4941593;29;20031;-83
2021/04/15 08:33:17;;;;;;;19.10;5.23;;;7.10;75.50;;;;;;4924347;29;20028;-83
2021/04/15 08:36:00;;;;;;;19.52;5.40;;;7.20;76.00;;;;;;4941098;29;20031;-80
2021/04/15 08:38:47;;;;;;;14.17;4.50;;;7.30;75.20;;;;;;4959868;29;20035;-80
2021/04/15 08:41:42;;;;;;;14.47;4.43;;;7.40;74.90;;;;;;4960529;29;20094;-85
2021/04/15 08:44:38;;;;;;;13.50;4.30;;;7.50;75.10;;;;;;4889920;29;20045;-85
2021/04/15 08:47:06;;;;;;;16.37;5.13;;;7.60;74.70;;;;;;4960047;29;20046;-84
2021/04/15 08:49:46;;;;;;;14.20;4.50;;;7.70;74.70;;;;;;4945221;29;20027;-84
2021/04/15 08:52:46;;;;;;;15.23;4.17;;;7.80;74.00;;;;;;4943874;29;20378;-79
2021/04/15 08:55:25;;;;;;;16.37;4.87;;;8.00;73.40;;;;;;4941800;29;20563;-82
2021/04/15 08:58:07;;;;;;;13.73;3.95;;;8.10;72.60;;;;;;4959609;29;20139;-82
2021/04/15 09:00:57;;;;;;;14.50;4.20;;;8.20;73.10;;;;;;4959939;28;20035;-81
2021/04/15 09:03:38;;;;;;;13.70;4.10;;;8.30;72.00;;;;;;4958798;29;20031;-81
2021/04/15 09:06:16;;;;;;;13.73;4.10;;;8.40;72.20;;;;;;4960303;29;20106;-82
2021/04/15 09:09:13;;;;;;;17.00;4.73;;;8.30;72.20;;;;;;4960909;29;20031;-84
2021/04/15 09:12:10;;;;;;;16.63;4.90;;;8.40;71.90;;;;;;4957350;29;20032;-82
2021/04/15 09:14:51;;;;;;;13.97;4.53;;;8.70;71.20;;;;;;4957452;29;20032;-83
2021/04/15 09:17:28;;;;;;;14.80;4.20;;;8.80;71.10;;;;;;4959339;29;20393;-83
2021/04/15 09:20:02;;;;;;;14.10;4.00;;;8.90;70.50;;;;;;4942265;29;20027;-84
2021/04/15 09:22:58;;;;;;;17.50;4.37;;;9.00;70.20;;;;;;4959478;29;20123;-82
2021/04/15 09:25:42;;;;;;;13.67;3.77;;;9.10;68.40;;;;;;4958239;29;20031;-83
2021/04/15 09:28:30;;;;;;;15.63;3.87;;;9.10;69.50;;;;;;4942071;29;20031;-82
2021/04/15 09:31:08;;;;;;;14.37;4.63;;;9.10;68.10;;;;;;4942018;29;20027;-81
2021/04/15 09:33:58;;;;;;;16.43;3.43;;;9.20;69.00;;;;;;4943866;29;20031;-81
2021/04/15 09:36:52;;;;;;;10.60;3.10;;;9.20;67.40;;;;;;4940050;29;20039;-80
2021/04/15 09:39:36;;;;;;;14.03;3.50;;;9.40;67.40;;;;;;4925892;29;20062;-81
2021/04/15 09:42:26;;;;;;;12.77;3.10;;;9.40;66.80;;;;;;4961016;29;20485;-87
2021/04/15 09:45:13;;;;;;;17.13;2.93;;;9.40;65.70;;;;;;4941947;29;20032;-83
2021/04/15 09:48:04;;;;;;;12.20;3.07;;;9.30;60.30;;;;;;4941819;29;20031;-86
2021/04/15 09:50:54;;;;;;;12.30;2.80;;;9.30;61.50;;;;;;4959357;29;20035;-83
2021/04/15 09:53:41;;;;;;;12.40;2.60;;;9.40;56.80;;;;;;4932683;29;20039;-79
2021/04/15 09:56:44;;;;;;;11.67;2.87;;;9.50;65.70;;;;;;4939699;29;20149;-82
2021/04/15 09:59:34;;;;;;;10.53;3.00;;;9.60;63.10;;;;;;4943601;29;20023;-81
2021/04/15 10:02:10;;;;;;;13.60;2.93;;;9.60;63.90;;;;;;4940587;29;20035;-84
2021/04/15 10:04:56;;;;;;;10.70;3.03;;;9.60;62.50;;;;;;4929787;29;20066;-83
2021/04/15 10:07:40;;;;;;;9.67;2.90;;;9.70;63.20;;;;;;4943558;29;20053;-83
2021/04/15 10:10:25;;;;;;;9.40;2.83;;;9.70;60.90;;;;;;4942281;29;20038;-87
2021/04/15 10:13:26;;;;;;;11.37;3.17;;;9.70;58.10;;;;;;4944555;29;20576;-85
2021/04/15 10:15:54;;;;;;;11.30;2.73;;;9.60;57.20;;;;;;4962724;29;20031;-78
2021/04/15 10:18:59;;;;;;;7.65;2.55;;;9.60;59.30;;;;;;4950375;29;20492;-79
2021/04/15 10:21:43;;;;;;;9.70;2.40;;;9.50;57.70;;;;;;4946487;29;20035;-80
2021/04/15 10:24:23;;;;;;;9.43;2.50;;;9.60;58.90;;;;;;4957034;29;20027;-79
2021/04/15 10:27:07;;;;;;;9.07;3.00;;;9.60;56.00;;;;;;4957362;29;20023;-81
2021/04/15 10:30:03;;;;;;;6.03;2.30;;;9.70;59.20;;;;;;4947821;29;20083;-82
2021/04/15 10:32:48;;;;;;;11.73;3.77;;;9.80;57.50;;;;;;4940493;29;20019;-83
2021/04/15 10:35:32;;;;;;;11.63;3.53;;;9.70;55.60;;;;;;4957724;29;20091;-82
2021/04/15 10:38:06;;;;;;;8.23;2.30;;;9.70;58.20;;;;;;4932646;29;20401;-82
2021/04/15 10:41:02;;;;;;;23.97;9.80;;;9.80;57.60;;;;;;4940209;29;20071;-83
2021/04/15 10:43:40;;;;;;;10.10;2.87;;;9.70;52.40;;;;;;4941719;29;20023;-83
2021/04/15 10:46:26;;;;;;;13.10;2.77;;;9.70;53.90;;;;;;4958863;29;20050;-82
2021/04/15 10:49:30;;;;;;;6.40;2.63;;;9.80;55.60;;;;;;4940309;29;20480;-82
2021/04/15 10:52:16;;;;;;;9.37;2.93;;;9.80;55.70;;;;;;4956584;29;20024;-81
2021/04/15 10:54:44;;;;;;;12.37;3.17;;;9.80;55.80;;;;;;4955579;29;20037;-80
2021/04/15 10:57:29;;;;;;;8.90;2.70;;;9.80;56.70;;;;;;4957096;29;20027;-80
2021/04/15 10:59:55;;;;;;;7.97;3.03;;;9.70;53.20;;;;;;4953648;28;20097;-80
2021/04/15 11:02:26;;;;;;;9.52;2.78;;;9.80;57.00;;;;;;4956662;29;20462;-81
2021/04/15 11:04:54;;;;;;;7.83;2.87;;;9.80;53.30;;;;;;4939690;29;20051;-80
2021/04/15 11:07:27;;;;;;;13.32;3.30;;;9.80;56.40;;;;;;4938306;29;20146;-80
2021/04/15 11:09:56;;;;;;;10.33;2.70;;;9.80;56.70;;;;;;4939233;29;20505;-81
2021/04/15 11:12:30;;;;;;;8.73;2.70;;;9.80;56.10;;;;;;4940499;29;20567;-81
2021/04/15 11:15:01;;;;;;;10.17;2.53;;;9.90;54.70;;;;;;4938497;29;20038;-81
2021/04/15 11:17:41;;;;;;;7.40;2.70;;;9.90;54.40;;;;;;4937322;29;20031;-82
2021/04/15 11:20:18;;;;;;;9.37;2.90;;;9.90;53.60;;;;;;4956138;29;20038;-82
2021/04/15 11:22:53;;;;;;;8.33;2.77;;;9.90;53.50;;;;;;4939918;28;20023;-82
2021/04/15 11:25:28;;;;;;;8.43;2.97;;;9.90;53.70;;;;;;4940844;29;20027;-80
2021/04/15 11:27:56;;;;;;;13.53;3.03;;;9.90;54.60;;;;;;4940875;29;20122;-82
2021/04/15 11:30:42;;;;;;;10.43;3.17;;;9.80;54.70;;;;;;4943133;29;20382;-82
2021/04/15 11:33:12;;;;;;;10.73;2.60;;;9.90;52.90;;;;;;4959440;29;20473;-81
2021/04/15 11:35:38;;;;;;;11.52;2.97;;;10.00;55.70;;;;;;4940514;29;20031;-82
2021/04/15 11:38:08;;;;;;;14.23;3.13;;;10.10;54.90;;;;;;4946018;29;20036;-82
2021/04/15 11:40:48;;;;;;;7.20;2.60;;;10.20;55.50;;;;;;4963425;29;20564;-82
2021/04/15 11:43:31;;;;;;;10.70;2.55;;;10.30;53.40;;;;;;4962266;29;20031;-85
2021/04/15 11:46:16;;;;;;;7.85;2.10;;;10.40;54.40;;;;;;4956327;29;20121;-81
2021/04/15 11:48:41;;;;;;;6.78;2.10;;;10.50;53.60;;;;;;4942709;29;20030;-84
2021/04/15 11:51:18;;;;;;;6.38;2.15;;;10.50;51.40;;;;;;4943029;29;20019;-83
2021/04/15 11:53:48;;;;;;;13.02;3.15;;;10.50;52.80;;;;;;4960696;28;20280;-83
2021/04/15 11:56:14;;;;;;;8.57;2.95;;;10.70;52.00;;;;;;4960632;29;20023;-81
2021/04/15 11:58:40;;;;;;;10.43;3.15;;;10.70;51.60;;;;;;4959671;29;20085;-81
2021/04/15 12:01:05;;;;;;;9.75;2.88;;;10.70;51.10;;;;;;4942160;29;20389;-81
2021/04/15 12:03:34;;;;;;;6.88;2.80;;;10.60;51.40;;;;;;4959933;29;20520;-81
2021/04/15 12:06:06;;;;;;;4.97;2.17;;;10.60;51.50;;;;;;4957301;29;20109;-80
2021/04/15 12:08:35;;;;;;;7.75;2.30;;;10.60;49.50;;;;;;4942154;29;20041;-83
2021/04/15 12:11:20;;;;;;;11.00;2.45;;;10.70;45.70;;;;;;4942322;29;20453;-82
2021/04/15 12:13:50;;;;;;;7.68;2.28;;;10.70;49.40;;;;;;4940996;29;20035;-81
2021/04/15 12:16:39;;;;;;;7.97;2.08;;;10.80;50.90;;;;;;4943488;29;20039;-81
2021/04/15 12:19:28;;;;;;;6.05;1.90;;;10.90;50.70;;;;;;4959406;29;20042;-82
2021/04/15 12:22:14;;;;;;;8.63;2.40;;;10.90;49.20;;;;;;4943785;29;20023;-81
2021/04/15 12:24:44;;;;;;;8.02;2.28;;;10.80;45.60;;;;;;4943342;29;20035;-82
2021/04/15 12:27:26;;;;;;;13.25;2.60;;;10.70;46.80;;;;;;4940931;29;20031;-81
2021/04/15 12:30:04;;;;;;;6.47;2.20;;;10.80;50.50;;;;;;4942210;29;20027;-82
2021/04/15 12:32:58;;;;;;;8.13;2.30;;;11.00;50.50;;;;;;4942765;29;20023;-85
2021/04/15 12:35:38;;;;;;;5.93;2.22;;;11.20;47.20;;;;;;4943478;29;20119;-82
2021/04/15 12:38:15;;;;;;;8.77;2.58;;;11.40;48.10;;;;;;4959431;29;20393;-81
2021/04/15 12:40:43;;;;;;;5.40;2.00;;;11.60;50.00;;;;;;4937957;29;20047;-85
2021/04/15 12:43:27;;;;;;;8.63;2.28;;;11.80;47.80;;;;;;4959677;29;20500;-83
2021/04/15 12:46:00;;;;;;;5.28;2.20;;;11.90;49.20;;;;;;4944769;29;20026;-81
2021/04/15 12:48:47;;;;;;;5.47;2.00;;;11.90;47.60;;;;;;4944128;29;20035;-87
2021/04/15 12:51:36;;;;;;;5.45;2.08;;;11.70;43.80;;;;;;4947622;29;20023;-90
2021/04/15 12:54:24;;;;;;;11.32;2.97;;;11.60;46.60;;;;;;4951377;28;20046;-89
2021/04/15 12:56:53;;;;;;;8.00;2.17;;;11.50;48.60;;;;;;4960784;28;20096;-92
2021/04/15 12:59:27;;;;;;;9.82;2.45;;;11.40;48.50;;;;;;4956099;28;20057;-90
2021/04/15 13:01:53;;;;;;;10.27;2.70;;;11.30;48.20;;;;;;4954461;29;20027;-93
2021/04/15 13:04:30;;;;;;;36.75;3.63;;;11.20;49.40;;;;;;4952495;28;20064;-91
2021/04/15 13:07:25;;;;;;;8.77;2.70;;;11.20;50.20;;;;;;4959156;28;20039;-91
2021/04/15 13:10:11;;;;;;;7.18;2.35;;;11.10;47.00;;;;;;4961355;28;20031;-92
2021/04/15 13:12:37;;;;;;;7.50;2.50;;;11.10;50.50;;;;;;4962478;28;20028;-91
2021/04/15 13:15:08;;;;;;;11.32;2.53;;;11.20;50.30;;;;;;4958831;28;20083;-92
2021/04/15 13:17:44;;;;;;;6.13;2.15;;;11.40;50.90;;;;;;4949222;29;20035;-94
2021/04/15 13:20:18;;;;;;;5.38;2.20;;;11.50;47.10;;;;;;4953774;29;20031;-94
2021/04/15 13:22:45;;;;;;;7.38;2.38;;;11.50;49.90;;;;;;4952123;29;20039;-91
2021/04/15 13:25:17;;;;;;;5.50;2.28;;;11.50;50.10;;;;;;4948415;29;20023;-94
2021/04/15 13:27:58;;;;;;;9.80;2.10;;;11.40;50.20;;;;;;4949272;29;20019;-93
2021/04/15 13:30:26;;;;;;;6.57;2.03;;;11.50;49.80;;;;;;4942133;29;20095;-91
2021/04/15 13:33:11;;;;;;;6.57;2.38;;;11.70;50.00;;;;;;4945562;29;20018;-93
2021/04/15 13:35:46;;;;;;;8.25;2.30;;;11.70;42.50;;;;;;4945427;29;20367;-93
2021/04/15 13:38:45;;;;;;;8.70;2.45;;;11.80;47.30;;;;;;4943784;29;20038;-92
2021/04/15 13:41:24;;;;;;;6.07;2.03;;;11.70;48.10;;;;;;4947711;29;20043;-91
2021/04/15 13:44:06;;;;;;;9.25;2.15;;;11.60;48.90;;;;;;4952975;29;20034;-92
2021/04/15 13:46:41;;;;;;;9.68;2.20;;;11.50;47.50;;;;;;4947127;29;20161;-93
2021/04/15 13:49:14;;;;;;;7.47;2.38;;;11.50;49.50;;;;;;4947205;29;20019;-93
2021/04/15 13:51:45;;;;;;;9.18;2.20;;;11.50;49.60;;;;;;4946144;29;20023;-89
2021/04/15 13:54:14;;;;;;;8.00;2.25;;;11.60;49.10;;;;;;4944488;29;20035;-89
2021/04/15 13:56:43;;;;;;;6.22;2.15;;;11.80;49.80;;;;;;4943269;29;20031;-89
2021/04/15 14:02:05;;;;;;;4.40;2.17;;;12.20;44.10;;;;;;4962775;29;20043;-91
2021/04/15 14:04:50;;;;;;;5.28;1.88;;;12.20;47.90;;;;;;4946726;29;20035;-90